createdAt,value
2018-05-03T00:02:12.866Z,70.40
2018-05-03T00:04:41.031Z,69.90
2018-05-03T00:07:09.110Z,68.90
2018-05-03T00:09:38.711Z,69.10
2018-05-03T00:12:06.781Z,68.00
2018-05-03T00:14:34.834Z,67.90
2018-05-03T00:17:02.896Z,68.50
2018-05-03T00:19:30.961Z,67.90
2018-05-03T00:21:59.049Z,68.10
2018-05-03T00:24:27.103Z,69.00
2018-05-03T00:26:55.202Z,69.80
2018-05-03T00:29:23.243Z,70.50
2018-05-03T00:31:51.301Z,70.80
2018-05-03T00:34:20.114Z,70.60
2018-05-03T00:36:48.270Z,68.80
2018-05-03T00:39:16.339Z,68.80
2018-05-03T00:41:44.408Z,68.80
2018-05-03T00:44:13.345Z,68.90
2018-05-03T00:46:41.879Z,69.00
2018-05-03T00:49:10.486Z,69.40
2018-05-03T00:51:38.537Z,68.60
2018-05-03T00:57:04.381Z,70.60
2018-05-03T00:59:32.893Z,71.50
2018-05-03T01:02:00.959Z,71.70
2018-05-03T01:04:28.993Z,71.90
2018-05-03T01:06:57.060Z,72.50
2018-05-03T01:09:25.186Z,73.10
2018-05-03T01:11:53.359Z,72.80
2018-05-03T01:14:21.522Z,72.90
2018-05-03T01:16:49.639Z,73.20
2018-05-03T01:19:17.640Z,73.30
2018-05-03T01:21:45.705Z,73.70
2018-05-03T01:24:13.769Z,73.70
2018-05-03T01:26:42.598Z,74.40
2018-05-03T01:29:10.666Z,74.10
2018-05-03T01:31:38.734Z,74.20
2018-05-03T01:34:06.805Z,74.20
2018-05-03T01:36:34.881Z,74.80
2018-05-03T01:39:02.925Z,74.70
2018-05-03T01:41:31.007Z,74.60
2018-05-03T01:43:59.082Z,74.30
2018-05-03T01:46:27.158Z,73.90
2018-05-03T01:48:55.218Z,74.40
2018-05-03T01:51:23.306Z,73.90
2018-05-03T01:53:51.385Z,74.40
2018-05-03T01:56:20.248Z,75.10
2018-05-03T01:58:48.306Z,73.70
2018-05-03T02:01:17.119Z,72.60
2018-05-03T02:03:45.232Z,71.80
2018-05-03T02:06:13.264Z,69.60
2018-05-03T02:08:41.285Z,68.80
2018-05-03T02:11:10.117Z,66.40
2018-05-03T02:13:38.158Z,64.80
2018-05-03T02:16:06.977Z,64.60
2018-05-03T02:18:35.018Z,63.70
2018-05-03T02:21:03.091Z,63.70
2018-05-03T02:23:31.952Z,64.10
2018-05-03T02:26:00.137Z,63.40
2018-05-03T02:28:28.215Z,63.70
2018-05-03T02:30:57.018Z,64.70
2018-05-03T02:33:25.829Z,64.10
2018-05-03T02:35:53.873Z,63.60
2018-05-03T02:38:22.797Z,64.60
2018-05-03T02:40:50.892Z,64.20
2018-05-03T02:43:18.949Z,64.10
2018-05-03T02:45:47.003Z,63.90
2018-05-03T02:48:15.056Z,64.40
2018-05-03T02:50:43.110Z,64.60
2018-05-03T02:53:11.935Z,65.20
2018-05-03T02:55:39.965Z,64.60
2018-05-03T03:01:28.146Z,64.50
2018-05-03T03:04:14.743Z,64.80
2018-05-03T03:10:17.812Z,64.40
2018-05-03T03:13:03.471Z,64.80
2018-05-03T03:15:44.327Z,64.70
2018-05-03T03:18:30.322Z,64.80
2018-05-03T03:21:16.246Z,64.90
2018-05-03T03:24:02.076Z,64.80
2018-05-03T03:30:00.841Z,65.10
2018-05-03T03:32:40.917Z,65.30
2018-05-03T03:38:36.395Z,65.30
2018-05-03T03:41:16.518Z,65.40
2018-05-03T03:43:56.438Z,65.60
2018-05-03T03:46:24.468Z,65.60
2018-05-03T03:48:52.566Z,65.80
2018-05-03T03:51:20.614Z,66.20
2018-05-03T03:53:48.725Z,66.30
2018-05-03T03:56:16.847Z,66.40
2018-05-03T03:58:46.385Z,66.80
2018-05-03T04:01:14.419Z,66.50
2018-05-03T04:03:42.487Z,66.50
2018-05-03T04:06:11.447Z,66.80
2018-05-03T04:08:39.520Z,66.40
2018-05-03T04:11:08.127Z,66.20
2018-05-03T04:13:36.977Z,66.80
2018-05-03T04:16:05.054Z,66.20
2018-05-03T04:18:45.015Z,66.20
2018-05-03T04:21:25.141Z,66.00
2018-05-03T04:24:14.001Z,66.00
2018-05-03T04:26:42.080Z,65.90
2018-05-03T04:29:10.123Z,65.80
2018-05-03T04:31:38.167Z,65.80
2018-05-03T04:34:07.009Z,66.30
2018-05-03T04:36:35.075Z,65.50
2018-05-03T04:39:03.145Z,65.30
2018-05-03T04:41:32.117Z,65.10
2018-05-03T04:44:00.213Z,64.90
2018-05-03T04:46:28.258Z,64.70
2018-05-03T04:48:56.331Z,64.60
2018-05-03T04:51:24.401Z,64.80
2018-05-03T04:53:52.831Z,64.70
2018-05-03T04:56:20.910Z,64.60
2018-05-03T04:58:49.734Z,64.70
2018-05-03T05:01:17.785Z,64.50
2018-05-03T05:03:47.330Z,64.50
2018-05-03T05:06:15.407Z,64.70
2018-05-03T05:08:44.407Z,64.90
2018-05-03T05:11:12.476Z,65.20
2018-05-03T05:13:40.561Z,65.50
2018-05-03T05:16:09.415Z,66.00
2018-05-03T05:18:37.501Z,65.50
2018-05-03T05:21:06.724Z,66.30
2018-05-03T05:23:34.774Z,65.60
2018-05-03T05:26:02.843Z,65.60
2018-05-03T05:28:30.986Z,65.70
2018-05-03T05:30:58.989Z,65.90
2018-05-03T05:33:27.067Z,66.00
2018-05-03T05:35:55.914Z,66.80
2018-05-03T05:38:23.983Z,66.40
2018-05-03T05:40:52.827Z,66.90
2018-05-03T05:43:20.885Z,66.90
2018-05-03T05:45:49.056Z,66.20
2018-05-03T05:48:17.134Z,66.10
2018-05-03T05:50:45.183Z,65.00
2018-05-03T05:53:13.268Z,65.40
2018-05-03T05:55:41.335Z,64.90
2018-05-03T05:58:09.423Z,64.20
2018-05-03T06:00:37.487Z,62.80
2018-05-03T06:03:05.558Z,63.40
2018-05-03T06:05:33.639Z,62.70
2018-05-03T06:08:01.722Z,63.00
2018-05-03T06:10:29.778Z,63.50
2018-05-03T06:12:57.831Z,63.70
2018-05-03T06:15:25.896Z,63.30
2018-05-03T06:17:53.985Z,63.20
2018-05-03T06:20:22.039Z,61.90
2018-05-03T06:22:50.091Z,61.00
2018-05-03T06:25:18.910Z,57.50
2018-05-03T06:27:46.989Z,54.00
2018-05-03T06:30:15.047Z,49.10
2018-05-03T06:32:43.126Z,49.40
2018-05-03T06:35:11.217Z,44.30
2018-05-03T06:37:39.287Z,41.40
2018-05-03T06:40:08.098Z,36.70
2018-05-03T06:42:36.177Z,36.60
2018-05-03T06:45:04.208Z,34.10
2018-05-03T06:47:32.271Z,29.00
2018-05-03T06:50:00.297Z,29.20
2018-05-03T06:52:29.121Z,26.90
2018-05-03T06:54:57.191Z,25.20
2018-05-03T06:57:25.231Z,24.40
2018-05-03T06:59:54.559Z,24.40
2018-05-03T07:02:22.640Z,24.00
2018-05-03T07:04:50.706Z,22.50
2018-05-03T07:07:18.774Z,22.30
2018-05-03T07:09:46.808Z,22.00
2018-05-03T07:12:15.627Z,22.00
2018-05-03T07:14:43.655Z,20.40
2018-05-03T07:17:12.134Z,19.80
2018-05-03T07:19:40.153Z,19.40
2018-05-03T07:22:08.221Z,19.20
2018-05-03T07:24:36.289Z,19.10
2018-05-03T07:27:04.317Z,19.20
2018-05-03T07:29:32.396Z,19.60
2018-05-03T07:32:00.495Z,18.80
2018-05-03T07:34:28.516Z,19.20
2018-05-03T07:36:56.549Z,18.70
2018-05-03T07:39:24.591Z,16.50
2018-05-03T07:41:53.411Z,15.90
2018-05-03T07:44:21.568Z,14.80
2018-05-03T07:46:49.569Z,15.20
2018-05-03T07:49:17.615Z,13.30
2018-05-03T07:51:45.688Z,13.70
2018-05-03T07:54:14.467Z,14.20
2018-05-03T07:56:42.625Z,14.20
2018-05-03T07:59:10.609Z,12.90
2018-05-03T08:01:38.635Z,12.90
2018-05-03T08:04:06.697Z,13.20
2018-05-03T08:06:34.765Z,12.80
2018-05-03T08:09:02.834Z,12.70
2018-05-03T08:11:31.250Z,12.80
2018-05-03T08:14:00.164Z,11.70
2018-05-03T08:16:28.182Z,11.60
2018-05-03T08:18:56.252Z,11.40
2018-05-03T08:21:24.313Z,10.70
2018-05-03T08:23:52.357Z,10.30
2018-05-03T08:26:20.423Z,10.40
2018-05-03T08:28:48.452Z,10.70
2018-05-03T08:31:16.513Z,10.80
2018-05-03T08:33:44.596Z,11.30
2018-05-03T08:36:12.644Z,10.70
2018-05-03T08:38:40.822Z,10.30
2018-05-03T08:41:08.879Z,10.70
2018-05-03T08:43:36.948Z,10.60
2018-05-03T08:46:04.994Z,10.90
2018-05-03T08:48:33.053Z,10.10
2018-05-03T08:51:01.887Z,9.60
2018-05-03T08:53:29.953Z,10.00
2018-05-03T08:55:58.034Z,10.30
2018-05-03T08:58:26.085Z,9.70
2018-05-03T09:00:54.136Z,9.80
2018-05-03T09:03:22.249Z,8.50
2018-05-03T09:05:50.422Z,9.40
2018-05-03T09:08:18.491Z,7.70
2018-05-03T09:10:46.570Z,8.30
2018-05-03T09:13:14.593Z,8.40
2018-05-03T09:15:42.660Z,8.40
2018-05-03T09:18:11.480Z,7.50
2018-05-03T09:20:39.543Z,7.50
2018-05-03T09:23:07.559Z,7.10
2018-05-03T09:25:35.795Z,5.80
2018-05-03T09:28:03.833Z,6.10
2018-05-03T09:30:33.395Z,6.80
2018-05-03T09:33:01.440Z,6.90
2018-05-03T09:35:29.499Z,7.00
2018-05-03T09:37:57.529Z,7.40
2018-05-03T09:40:25.583Z,6.70
2018-05-03T09:42:53.624Z,6.60
2018-05-03T09:45:21.716Z,7.00
2018-05-03T09:47:50.178Z,7.00
2018-05-03T09:50:18.295Z,6.10
2018-05-03T09:52:46.307Z,5.80
2018-05-03T09:55:14.330Z,5.70
2018-05-03T09:57:42.390Z,5.40
2018-05-03T10:00:10.429Z,6.10
2018-05-03T10:02:38.487Z,6.20
2018-05-03T10:05:06.525Z,6.00
2018-05-03T10:07:34.569Z,6.30
2018-05-03T10:10:02.701Z,6.90
2018-05-03T10:12:31.653Z,7.00
2018-05-03T10:14:59.669Z,7.20
2018-05-03T10:17:27.729Z,7.40
2018-05-03T10:19:56.550Z,7.70
2018-05-03T10:22:24.612Z,7.70
2018-05-03T10:24:52.677Z,8.20
2018-05-03T10:27:21.489Z,9.00
2018-05-03T10:29:49.590Z,8.90
2018-05-03T10:32:17.604Z,9.30
2018-05-03T10:34:45.653Z,8.30
2018-05-03T10:37:14.466Z,9.50
2018-05-03T10:39:42.543Z,9.50
2018-05-03T10:42:10.691Z,9.30
2018-05-03T10:44:38.680Z,9.60
2018-05-03T10:47:06.742Z,9.80
2018-05-03T10:49:35.260Z,9.60
2018-05-03T10:52:03.322Z,9.80
2018-05-03T10:54:31.377Z,10.30
2018-05-03T10:56:59.447Z,10.60
2018-05-03T10:59:27.550Z,10.90
2018-05-03T11:01:55.563Z,11.30
2018-05-03T11:04:24.477Z,11.50
2018-05-03T11:06:53.282Z,12.00
2018-05-03T11:09:21.465Z,11.70
2018-05-03T11:11:50.328Z,11.90
2018-05-03T11:14:18.831Z,12.10
2018-05-03T11:16:46.988Z,12.30
2018-05-03T11:19:14.966Z,12.80
2018-05-03T11:21:43.023Z,13.10
2018-05-03T11:24:11.070Z,13.60
2018-05-03T11:26:39.942Z,14.20
2018-05-03T11:29:07.975Z,14.10
2018-05-03T11:31:36.014Z,13.80
2018-05-03T11:34:04.080Z,13.70
2018-05-03T11:36:32.903Z,14.10
2018-05-03T11:39:00.971Z,14.10
2018-05-03T11:41:29.041Z,14.60
2018-05-03T11:43:57.100Z,14.80
2018-05-03T11:46:25.172Z,15.00
2018-05-03T11:48:53.303Z,14.90
2018-05-03T11:51:21.334Z,15.30
2018-05-03T11:53:49.393Z,15.50
2018-05-03T11:56:17.472Z,16.10
2018-05-03T11:58:45.522Z,15.60
2018-05-03T12:01:13.578Z,16.00
2018-05-03T12:03:42.497Z,16.50
2018-05-03T12:06:10.555Z,16.40
2018-05-03T12:08:38.583Z,17.40
2018-05-03T12:11:06.730Z,17.20
2018-05-03T12:13:34.777Z,16.90
2018-05-03T12:16:02.870Z,17.00
2018-05-03T12:18:30.929Z,17.00
2018-05-03T12:20:58.986Z,17.30
2018-05-03T12:23:27.070Z,17.00
2018-05-03T12:25:55.107Z,17.40
2018-05-03T12:28:23.916Z,17.20
2018-05-03T12:30:51.975Z,17.20
2018-05-03T12:33:20.785Z,17.70
2018-05-03T12:35:48.836Z,17.20
2018-05-03T12:38:17.649Z,19.50
2018-05-03T12:40:45.721Z,19.50
2018-05-03T12:43:13.814Z,19.20
2018-05-03T12:45:42.778Z,19.60
2018-05-03T12:48:11.547Z,19.50
2018-05-03T12:50:40.377Z,19.70
2018-05-03T12:53:08.453Z,19.30
2018-05-03T12:55:36.485Z,19.60
2018-05-03T12:58:04.538Z,19.60
2018-05-03T13:00:33.243Z,19.30
2018-05-03T13:03:01.405Z,19.10
2018-05-03T13:05:29.433Z,18.60
2018-05-03T13:07:57.551Z,18.50
2018-05-03T13:10:25.680Z,18.90
2018-05-03T13:12:53.732Z,18.60
2018-05-03T13:15:21.770Z,18.80
2018-05-03T13:17:49.832Z,19.10
2018-05-03T13:20:18.682Z,20.40
2018-05-03T13:22:47.723Z,19.60
2018-05-03T13:25:16.556Z,20.10
2018-05-03T13:27:44.610Z,19.60
2018-05-03T13:30:12.761Z,20.20
2018-05-03T13:32:42.290Z,21.00
2018-05-03T13:35:10.313Z,21.20
2018-05-03T13:37:38.511Z,20.20
2018-05-03T13:40:06.614Z,21.00
2018-05-03T13:42:34.654Z,21.40
2018-05-03T13:45:02.774Z,20.60
2018-05-03T13:47:30.820Z,20.50
2018-05-03T13:49:58.894Z,20.60
2018-05-03T13:52:26.968Z,20.70
2018-05-03T13:54:55.004Z,20.80
2018-05-03T13:57:23.814Z,21.40
2018-05-03T13:59:51.940Z,21.30
2018-05-03T14:02:21.493Z,23.00
2018-05-03T14:04:49.533Z,21.90
2018-05-03T14:07:18.477Z,22.40
2018-05-03T14:09:46.675Z,22.20
2018-05-03T14:12:14.830Z,22.10
2018-05-03T14:14:43.413Z,22.70
2018-05-03T14:17:11.489Z,23.10
2018-05-03T14:19:39.554Z,22.10
2018-05-03T14:22:07.612Z,22.40
2018-05-03T14:24:35.760Z,22.30
2018-05-03T14:27:03.888Z,22.80
2018-05-03T14:29:31.942Z,21.80
2018-05-03T14:31:59.977Z,21.60
2018-05-03T14:34:28.048Z,21.80
2018-05-03T14:36:56.085Z,21.70
2018-05-03T14:39:24.133Z,21.60
2018-05-03T14:41:52.197Z,21.90
2018-05-03T14:44:20.249Z,22.20
2018-05-03T14:46:48.334Z,22.00
2018-05-03T14:49:16.385Z,22.00
2018-05-03T14:51:44.411Z,22.10
2018-05-03T14:54:12.474Z,21.80
2018-05-03T14:56:40.531Z,22.00
2018-05-03T14:59:08.566Z,21.90
2018-05-03T15:01:36.602Z,21.80
2018-05-03T15:04:04.686Z,22.20
2018-05-03T15:06:33.506Z,22.90
2018-05-03T15:09:01.541Z,22.20
2018-05-03T15:11:30.357Z,22.80
2018-05-03T15:13:58.409Z,22.40
2018-05-03T15:16:27.258Z,23.20
2018-05-03T15:18:55.322Z,23.70
2018-05-03T15:21:23.354Z,24.50
2018-05-03T15:23:51.430Z,24.60
2018-05-03T15:26:19.526Z,24.80
2018-05-03T15:28:47.562Z,25.10
2018-05-03T15:31:16.408Z,25.10
2018-05-03T15:33:44.518Z,25.00
2018-05-03T15:36:12.498Z,25.10
2018-05-03T15:38:40.561Z,25.40
2018-05-03T15:41:08.610Z,25.90
2018-05-03T15:43:36.644Z,25.80
2018-05-03T15:46:05.898Z,25.50
2018-05-03T15:48:33.898Z,25.60
2018-05-03T15:51:01.971Z,25.60
2018-05-03T15:53:29.990Z,25.60
2018-05-03T15:55:58.059Z,25.80
2018-05-03T15:58:26.079Z,25.50
2018-05-03T16:00:54.194Z,25.70
2018-05-03T16:03:22.221Z,25.70
2018-05-03T16:05:50.293Z,26.00
2018-05-03T16:08:18.355Z,25.50
2018-05-03T16:10:46.414Z,25.60
2018-05-03T16:13:14.450Z,25.80
2018-05-03T16:15:42.494Z,26.00
2018-05-03T16:18:10.565Z,26.00
2018-05-03T16:20:39.537Z,26.60
2018-05-03T16:23:07.691Z,27.00
2018-05-03T16:25:35.765Z,27.40
2018-05-03T16:28:03.770Z,26.10
2018-05-03T16:30:31.793Z,26.50
2018-05-03T16:33:00.613Z,26.90
2018-05-03T16:35:28.659Z,26.70
2018-05-03T16:37:56.733Z,26.20
2018-05-03T16:40:24.804Z,26.40
2018-05-03T16:42:52.820Z,26.60
2018-05-03T16:45:20.885Z,26.30
2018-05-03T16:47:48.949Z,26.20
2018-05-03T16:50:17.013Z,26.20
2018-05-03T16:52:45.090Z,26.20
2018-05-03T16:55:13.124Z,26.00
2018-05-03T16:57:41.942Z,26.70
2018-05-03T17:00:10.017Z,26.30
2018-05-03T17:02:38.082Z,26.50
2018-05-03T17:05:06.114Z,26.90
2018-05-03T17:07:35.002Z,27.20
2018-05-03T17:10:03.060Z,26.60
2018-05-03T17:12:31.086Z,26.90
2018-05-03T17:14:59.143Z,26.70
2018-05-03T17:17:27.619Z,26.90
2018-05-03T17:22:25.003Z,27.70
2018-05-03T17:24:53.057Z,27.80
2018-05-03T17:27:21.089Z,28.10
2018-05-03T17:29:49.518Z,27.80
2018-05-03T17:32:17.550Z,27.90
2018-05-03T17:34:45.651Z,28.00
2018-05-03T17:37:13.682Z,27.80
2018-05-03T17:39:41.772Z,27.90
2018-05-03T17:42:10.570Z,28.40
2018-05-03T17:44:39.397Z,28.90
2018-05-03T17:47:08.252Z,29.00
2018-05-03T17:49:37.071Z,28.90
2018-05-03T17:52:05.123Z,28.40
2018-05-03T17:54:33.966Z,29.30
2018-05-03T17:57:02.051Z,29.10
2018-05-03T17:59:30.059Z,28.50
2018-05-03T18:01:58.847Z,29.40
2018-05-03T18:06:56.197Z,29.10
2018-05-03T18:09:25.025Z,29.60
2018-05-03T18:11:53.076Z,29.60
2018-05-03T18:14:21.125Z,29.40
2018-05-03T18:16:49.958Z,30.00
2018-05-03T18:19:18.012Z,29.90
2018-05-03T18:21:46.191Z,30.00
2018-05-03T18:24:14.238Z,30.70
2018-05-03T18:26:43.097Z,31.40
2018-05-03T18:29:11.261Z,31.20
2018-05-03T18:31:39.381Z,31.40
2018-05-03T18:34:07.424Z,31.60
2018-05-03T18:36:35.499Z,31.70
2018-05-03T18:39:03.544Z,31.70
2018-05-03T18:41:31.706Z,33.10
2018-05-03T18:43:59.899Z,33.00
2018-05-03T18:46:27.877Z,33.50
2018-05-03T18:48:55.981Z,33.70
2018-05-03T18:51:24.829Z,34.40
2018-05-03T18:53:52.886Z,34.20
2018-05-03T18:56:20.962Z,34.50
2018-05-03T18:58:49.810Z,35.30
2018-05-03T19:01:18.698Z,35.80
2018-05-03T19:03:46.764Z,35.30
2018-05-03T19:06:14.778Z,35.70
2018-05-03T19:08:42.987Z,35.80
2018-05-03T19:11:11.051Z,36.30
2018-05-03T19:13:39.089Z,36.60
2018-05-03T19:16:07.993Z,37.00
2018-05-03T19:18:36.123Z,37.00
2018-05-03T19:21:04.129Z,37.20
2018-05-03T19:23:32.203Z,37.90
2018-05-03T19:26:00.297Z,38.40
2018-05-03T19:28:28.447Z,38.80
2018-05-03T19:30:56.548Z,39.10
2018-05-03T19:33:26.138Z,39.80
2018-05-03T19:35:54.418Z,39.80
2018-05-03T19:38:22.460Z,40.20
2018-05-03T19:40:51.252Z,40.20
2018-05-03T19:43:19.365Z,40.60
2018-05-03T19:45:47.435Z,40.80
2018-05-03T19:48:15.868Z,41.30
2018-05-03T19:50:44.450Z,41.60
2018-05-03T19:55:41.860Z,42.10
2018-05-03T19:58:10.186Z,42.50
2018-05-03T20:00:38.782Z,42.80
2018-05-03T20:03:06.822Z,43.10
2018-05-03T20:05:34.874Z,43.30
2018-05-03T20:08:02.914Z,44.00
2018-05-03T20:10:30.957Z,44.30
2018-05-03T20:12:59.088Z,44.90
2018-05-03T20:15:27.125Z,45.00
2018-05-03T20:17:55.418Z,45.40
2018-05-03T20:20:23.668Z,45.70
2018-05-03T20:22:51.718Z,46.40
2018-05-03T20:25:20.522Z,47.00
2018-05-03T20:27:48.565Z,47.00
2018-05-03T20:30:17.510Z,47.80
2018-05-03T20:32:45.673Z,47.80
2018-05-03T20:35:13.801Z,48.20
2018-05-03T20:37:42.729Z,48.70
2018-05-03T20:40:10.801Z,48.60
2018-05-03T20:42:38.907Z,48.70
2018-05-03T20:45:07.077Z,49.10
2018-05-03T20:47:35.126Z,49.50
2018-05-03T20:50:03.811Z,49.50
2018-05-03T20:52:32.692Z,49.80
2018-05-03T20:55:00.759Z,49.70
2018-05-03T20:57:28.816Z,49.70
2018-05-03T20:59:56.937Z,49.80
2018-05-03T21:02:24.992Z,50.10
2018-05-03T21:04:53.025Z,50.10
2018-05-03T21:07:21.081Z,50.70
2018-05-03T21:09:49.187Z,50.70
2018-05-03T21:12:17.251Z,50.70
2018-05-03T21:14:45.332Z,50.70
2018-05-03T21:17:13.400Z,51.40
2018-05-03T21:19:41.458Z,51.20
2018-05-03T21:22:09.556Z,51.50
2018-05-03T21:24:37.633Z,52.40
2018-05-03T21:27:05.710Z,52.40
2018-05-03T21:29:33.747Z,52.60
2018-05-03T21:32:01.817Z,52.60
2018-05-03T21:34:29.925Z,52.70
2018-05-03T21:36:58.063Z,53.20
2018-05-03T21:39:26.147Z,53.10
2018-05-03T21:41:54.175Z,53.10
2018-05-03T21:44:22.268Z,53.70
2018-05-03T21:46:51.161Z,54.40
2018-05-03T21:49:19.197Z,54.40
2018-05-03T21:51:47.280Z,54.80
2018-05-03T21:54:16.106Z,55.10
2018-05-03T21:56:44.178Z,55.10
2018-05-03T21:59:12.227Z,55.40
2018-05-03T22:01:41.045Z,55.70
2018-05-03T22:04:09.103Z,55.70
2018-05-03T22:06:37.158Z,55.70
2018-05-03T22:09:05.969Z,56.90
2018-05-03T22:11:34.033Z,56.80
2018-05-03T22:14:02.092Z,56.90
2018-05-03T22:16:30.908Z,57.30
2018-05-03T22:18:58.961Z,57.30
2018-05-03T22:21:27.761Z,57.20
2018-05-03T22:23:55.804Z,57.20
2018-05-03T22:26:24.614Z,57.40
2018-05-03T22:28:52.676Z,57.30
2018-05-03T22:31:20.874Z,57.50
2018-05-03T22:33:48.937Z,57.60
2018-05-03T22:36:17.005Z,57.80
2018-05-03T22:38:45.120Z,57.50
2018-05-03T22:41:13.258Z,58.00
2018-05-03T22:43:41.326Z,57.80
2018-05-03T22:46:09.396Z,58.40
2018-05-03T22:48:37.521Z,58.50
2018-05-03T22:51:05.497Z,58.30
2018-05-03T22:53:33.545Z,58.50
2018-05-03T22:56:01.618Z,58.80
2018-05-03T22:58:29.779Z,59.00
2018-05-03T23:00:57.843Z,58.70
2018-05-03T23:03:25.924Z,59.10
2018-05-03T23:05:53.952Z,59.50
2018-05-03T23:08:21.994Z,59.60
2018-05-03T23:10:50.098Z,59.90
2018-05-03T23:13:19.041Z,60.00
2018-05-03T23:15:47.050Z,60.00
2018-05-03T23:18:15.119Z,60.60
2018-05-03T23:20:43.918Z,61.00
2018-05-03T23:23:12.528Z,61.00
2018-05-03T23:25:40.578Z,61.20
2018-05-03T23:28:08.690Z,61.90
2018-05-03T23:30:36.738Z,61.70
2018-05-03T23:33:04.768Z,61.70
2018-05-03T23:35:33.597Z,62.60
2018-05-03T23:38:01.630Z,62.40
2018-05-03T23:40:30.452Z,62.50
2018-05-03T23:42:58.523Z,62.40
2018-05-03T23:45:26.593Z,62.40
2018-05-03T23:47:54.626Z,62.20
2018-05-03T23:50:23.472Z,63.20
2018-05-03T23:52:51.534Z,63.20
2018-05-03T23:55:19.610Z,63.80
2018-05-03T23:57:47.685Z,63.20
